Time,TemperatureF,DewpointF,PressureIn,WindDirection,WindDirectionDegrees,WindSpeedMPH,WindSpeedGustMPH,Humidity,HourlyPrecipIn,Conditions,Clouds,dailyrainin,SolarRadiationWatts/m^2,SoftwareType,DateUTC
2013-02-20 00:14:00,46.3,44.0,29.75,NW,325,3.0,-999.0,93,-99.99,,,0.00,0,weatherlink.com 1.10,2013-02-20 08:14:00,
2013-02-20 00:29:00,45.9,44.0,29.76,WNW,300,6.0,-999.0,93,-99.99,,,0.00,0,weatherlink.com 1.10,2013-02-20 08:29:00,
2013-02-20 00:44:00,45.5,44.0,29.76,NW,309,4.0,-999.0,93,-99.99,,,0.00,0,weatherlink.com 1.10,2013-02-20 08:44:00,
2013-02-20 00:59:00,45.3,43.0,29.76,WNW,282,0.0,-999.0,93,-99.99,,,0.00,0,weatherlink.com 1.10,2013-02-20 08:59:00,
2013-02-20 01:15:00,45.2,43.0,29.76,WNW,282,0.0,-999.0,93,-99.99,,,0.00,0,weatherlink.com 1.10,2013-02-20 09:15:00,
2013-02-20 01:29:00,45.1,43.0,29.75,NNW,327,0.0,-999.0,92,-99.99,,,0.00,0,weatherlink.com 1.10,2013-02-20 09:29:00,
2013-02-20 01:45:00,45.1,43.0,29.75,NW,317,2.0,-999.0,91,-99.99,,,0.00,0,weatherlink.com 1.10,2013-02-20 09:45:00,
2013-02-20 01:59:00,45.2,42.0,29.75,West,264,0.0,-999.0,89,-99.99,,,0.00,0,weatherlink.com 1.10,2013-02-20 09:59:00,
2013-02-20 02:15:00,45.1,42.0,29.75,WNW,301,2.0,-999.0,87,-99.99,,,0.00,0,weatherlink.com 1.10,2013-02-20 10:15:00,
2013-02-20 02:30:00,45.2,41.0,29.74,West,266,6.0,-999.0,85,-99.99,,,0.00,0,weatherlink.com 1.10,2013-02-20 10:30:00,
2013-02-20 02:45:00,45.5,40.0,29.75,WNW,290,3.0,-999.0,82,-99.99,,,0.00,0,weatherlink.com 1.10,2013-02-20 10:45:00,
2013-02-20 03:00:00,45.5,39.0,29.75,West,262,5.0,-999.0,78,-99.99,,,0.00,0,weatherlink.com 1.10,2013-02-20 11:00:00,
2013-02-20 03:15:00,46.0,39.0,29.74,WNW,287,2.0,-999.0,76,-99.99,,,0.00,0,weatherlink.com 1.10,2013-02-20 11:15:00,
2013-02-20 03:30:00,46.1,39.0,29.74,WNW,297,1.0,-999.0,76,-99.99,,,0.00,0,weatherlink.com 1.10,2013-02-20 11:30:00,
2013-02-20 03:45:00,46.2,39.0,29.75,NNW,330,4.0,-999.0,76,-99.99,,,0.00,0,weatherlink.com 1.10,2013-02-20 11:45:00,
2013-02-20 04:00:00,46.1,39.0,29.75,NW,313,1.0,-999.0,76,-99.99,,,0.00,0,weatherlink.com 1.10,2013-02-20 12:00:00,
2013-02-20 04:15:00,46.0,39.0,29.75,NW,314,0.0,-999.0,77,-99.99,,,0.00,0,weatherlink.com 1.10,2013-02-20 12:15:00,
2013-02-20 04:30:00,45.8,39.0,29.75,WNW,300,0.0,-999.0,78,-99.99,,,0.00,0,weatherlink.com 1.10,2013-02-20 12:30:00,
2013-02-20 04:45:00,45.5,39.0,29.76,NW,315,0.0,-999.0,78,-99.99,,,0.00,0,weatherlink.com 1.10,2013-02-20 12:45:00,
2013-02-20 05:00:00,45.2,38.0,29.76,West,275,0.0,-999.0,77,-99.99,,,0.00,0,weatherlink.com 1.10,2013-02-20 13:00:00,
2013-02-20 05:15:00,44.9,38.0,29.76,West,281,0.0,-999.0,78,-99.99,,,0.00,0,weatherlink.com 1.10,2013-02-20 13:15:00,
2013-02-20 05:30:00,44.3,38.0,29.76,NNW,330,0.0,-999.0,79,-99.99,,,0.00,0,weatherlink.com 1.10,2013-02-20 13:30:00,
2013-02-20 05:45:00,43.6,37.0,29.77,NNW,328,0.0,-999.0,78,-99.99,,,0.00,0,weatherlink.com 1.10,2013-02-20 13:45:00,
2013-02-20 06:00:00,42.3,37.0,29.77,NNW,328,0.0,-999.0,80,-99.99,,,0.00,0,weatherlink.com 1.10,2013-02-20 14:00:00,
2013-02-20 06:15:00,41.4,36.0,29.78,NNW,328,0.0,-999.0,81,-99.99,,,0.00,0,weatherlink.com 1.10,2013-02-20 14:15:00,
2013-02-20 06:30:00,40.2,35.0,29.78,NNW,330,1.0,-999.0,82,-99.99,,,0.00,0,weatherlink.com 1.10,2013-02-20 14:30:00,
2013-02-20 06:45:00,39.0,35.0,29.79,ENE,62,0.0,-999.0,85,-99.99,,,0.00,11,weatherlink.com 1.10,2013-02-20 14:45:00,
2013-02-20 07:00:00,38.3,35.0,29.80,ENE,62,0.0,-999.0,86,-99.99,,,0.00,30,weatherlink.com 1.10,2013-02-20 15:00:00,
2013-02-20 07:15:00,38.1,35.0,29.81,ENE,62,0.0,-999.0,87,-99.99,,,0.00,93,weatherlink.com 1.10,2013-02-20 15:15:00,
2013-02-20 07:31:00,38.8,36.0,29.82,ENE,65,0.0,-999.0,88,-99.99,,,0.00,155,weatherlink.com 1.10,2013-02-20 15:31:00,
2013-02-20 07:45:00,40.0,37.0,29.82,ENE,65,0.0,-999.0,89,-99.99,,,0.00,230,weatherlink.com 1.10,2013-02-20 15:45:00,
2013-02-20 08:00:00,41.0,38.0,29.83,ENE,65,0.0,-999.0,89,-99.99,,,0.00,325,weatherlink.com 1.10,2013-02-20 16:00:00,
2013-02-20 08:16:00,42.0,39.0,29.83,ENE,65,0.0,-999.0,89,-99.99,,,0.00,237,weatherlink.com 1.10,2013-02-20 16:16:00,
2013-02-20 08:31:00,43.7,40.0,29.84,WSW,252,0.0,-999.0,88,-99.99,,,0.00,406,weatherlink.com 1.10,2013-02-20 16:31:00,
2013-02-20 08:46:00,45.8,38.0,29.84,NW,318,3.0,-999.0,75,-99.99,,,0.00,448,weatherlink.com 1.10,2013-02-20 16:46:00,
2013-02-20 09:01:00,47.3,37.0,29.85,WNW,300,0.0,-999.0,67,-99.99,,,0.00,497,weatherlink.com 1.10,2013-02-20 17:01:00,
2013-02-20 09:16:00,48.7,37.0,29.85,WNW,298,0.0,-999.0,65,-99.99,,,0.00,538,weatherlink.com 1.10,2013-02-20 17:16:00,
2013-02-20 09:31:00,49.4,36.0,29.86,WSW,243,0.0,-999.0,60,-99.99,,,0.00,578,weatherlink.com 1.10,2013-02-20 17:31:00,
2013-02-20 09:46:00,50.3,37.0,29.87,WNW,300,3.0,-999.0,60,-99.99,,,0.00,615,weatherlink.com 1.10,2013-02-20 17:46:00,
2013-02-20 10:01:00,51.3,36.0,29.86,WNW,284,3.0,-999.0,57,-99.99,,,0.00,650,weatherlink.com 1.10,2013-02-20 18:01:00,
2013-02-20 10:16:00,52.2,35.0,29.87,WNW,284,2.0,-999.0,53,-99.99,,,0.00,679,weatherlink.com 1.10,2013-02-20 18:16:00,
2013-02-20 10:31:00,52.7,35.0,29.88,NW,323,0.0,-999.0,51,-99.99,,,0.00,705,weatherlink.com 1.10,2013-02-20 18:31:00,
2013-02-20 10:46:00,54.1,35.0,29.87,NNE,15,0.0,-999.0,48,-99.99,,,0.00,728,weatherlink.com 1.10,2013-02-20 18:46:00,
2013-02-20 11:01:00,54.5,33.0,29.88,WNW,284,2.0,-999.0,44,-99.99,,,0.00,745,weatherlink.com 1.10,2013-02-20 19:01:00,
2013-02-20 11:16:00,54.7,32.0,29.88,South,172,0.0,-999.0,42,-99.99,,,0.00,759,weatherlink.com 1.10,2013-02-20 19:16:00,
2013-02-20 11:31:00,55.5,33.0,29.88,North,358,0.0,-999.0,42,-99.99,,,0.00,768,weatherlink.com 1.10,2013-02-20 19:31:00,
2013-02-20 11:46:00,55.7,37.0,29.88,West,262,3.0,-999.0,50,-99.99,,,0.00,791,weatherlink.com 1.10,2013-02-20 19:46:00,
2013-02-20 12:01:00,55.6,38.0,29.88,NW,316,4.0,-999.0,51,-99.99,,,0.00,779,weatherlink.com 1.10,2013-02-20 20:01:00,
2013-02-20 12:16:00,55.6,38.0,29.88,WSW,245,10.0,-999.0,52,-99.99,,,0.00,786,weatherlink.com 1.10,2013-02-20 20:16:00,
2013-02-20 12:32:00,56.3,39.0,29.88,NW,323,3.0,-999.0,52,-99.99,,,0.00,802,weatherlink.com 1.10,2013-02-20 20:32:00,
2013-02-20 12:47:00,56.2,38.0,29.88,NNW,328,4.0,-999.0,51,-99.99,,,0.00,795,weatherlink.com 1.10,2013-02-20 20:47:00,
2013-02-20 13:02:00,55.5,38.0,29.88,West,271,7.0,-999.0,52,-99.99,,,0.00,742,weatherlink.com 1.10,2013-02-20 21:02:00,
2013-02-20 13:17:00,56.2,37.0,29.88,NW,307,3.0,-999.0,49,-99.99,,,0.00,756,weatherlink.com 1.10,2013-02-20 21:17:00,
2013-02-20 13:32:00,56.8,38.0,29.88,WNW,295,5.0,-999.0,50,-99.99,,,0.00,728,weatherlink.com 1.10,2013-02-20 21:32:00,
2013-02-20 13:47:00,57.6,38.0,29.87,West,275,7.0,-999.0,49,-99.99,,,0.00,686,weatherlink.com 1.10,2013-02-20 21:47:00,
2013-02-20 14:02:00,58.0,38.0,29.87,WSW,240,6.0,-999.0,47,-99.99,,,0.00,649,weatherlink.com 1.10,2013-02-20 22:02:00,
2013-02-20 14:17:00,57.4,38.0,29.88,WSW,238,2.0,-999.0,48,-99.99,,,0.00,186,weatherlink.com 1.10,2013-02-20 22:17:00,
2013-02-20 14:32:00,57.3,39.0,29.88,WNW,295,2.0,-999.0,51,-99.99,,,0.00,571,weatherlink.com 1.10,2013-02-20 22:32:00,
2013-02-20 14:47:00,56.7,39.0,29.88,SW,234,3.0,-999.0,51,-99.99,,,0.00,526,weatherlink.com 1.10,2013-02-20 22:47:00,
2013-02-20 15:02:00,56.8,38.0,29.88,WNW,297,1.0,-999.0,50,-99.99,,,0.00,480,weatherlink.com 1.10,2013-02-20 23:02:00,
2013-02-20 15:17:00,57.3,38.0,29.89,West,261,4.0,-999.0,48,-99.99,,,0.00,434,weatherlink.com 1.10,2013-02-20 23:17:00,
2013-02-20 15:32:00,57.3,38.0,29.90,WSW,238,6.0,-999.0,48,-99.99,,,0.00,380,weatherlink.com 1.10,2013-02-20 23:32:00,
2013-02-20 15:47:00,56.8,39.0,29.90,WSW,240,6.0,-999.0,51,-99.99,,,0.00,332,weatherlink.com 1.10,2013-02-20 23:47:00,
2013-02-20 16:02:00,56.4,39.0,29.91,NW,324,6.0,-999.0,52,-99.99,,,0.00,279,weatherlink.com 1.10,2013-02-21 00:02:00,
2013-02-20 16:17:00,56.3,38.0,29.92,West,270,4.0,-999.0,50,-99.99,,,0.00,229,weatherlink.com 1.10,2013-02-21 00:17:00,
2013-02-20 16:32:00,56.0,37.0,29.92,WNW,289,2.0,-999.0,50,-99.99,,,0.00,165,weatherlink.com 1.10,2013-02-21 00:32:00,
2013-02-20 16:47:00,55.6,38.0,29.92,WNW,282,0.0,-999.0,52,-99.99,,,0.00,102,weatherlink.com 1.10,2013-02-21 00:47:00,
2013-02-20 17:02:00,55.7,40.0,29.93,WSW,252,1.0,-999.0,55,-99.99,,,0.00,54,weatherlink.com 1.10,2013-02-21 01:02:00,
2013-02-20 17:17:00,55.0,40.0,29.93,WNW,287,0.0,-999.0,58,-99.99,,,0.00,21,weatherlink.com 1.10,2013-02-21 01:17:00,
2013-02-20 17:47:00,52.7,41.0,29.96,WNW,295,0.0,-999.0,65,-99.99,,,0.00,0,weatherlink.com 1.10,2013-02-21 01:47:00,
2013-02-20 18:02:00,52.2,41.0,29.96,WNW,295,0.0,-999.0,66,-99.99,,,0.00,0,weatherlink.com 1.10,2013-02-21 02:02:00,
2013-02-20 18:17:00,51.2,41.0,29.96,SSW,195,0.0,-999.0,68,-99.99,,,0.00,0,weatherlink.com 1.10,2013-02-21 02:17:00,
2013-02-20 18:33:00,49.9,41.0,29.97,South,170,0.0,-999.0,71,-99.99,,,0.00,0,weatherlink.com 1.10,2013-02-21 02:33:00,
2013-02-20 18:48:00,49.2,41.0,29.98,South,170,0.0,-999.0,73,-99.99,,,0.00,0,weatherlink.com 1.10,2013-02-21 02:48:00,
2013-02-20 19:02:00,48.0,41.0,29.98,SSE,165,0.0,-999.0,76,-99.99,,,0.00,0,weatherlink.com 1.10,2013-02-21 03:02:00,
2013-02-20 19:18:00,46.9,40.0,29.98,SSE,165,0.0,-999.0,77,-99.99,,,0.00,0,weatherlink.com 1.10,2013-02-21 03:18:00,
2013-02-20 19:32:00,45.6,39.0,29.98,SSE,165,0.0,-999.0,79,-99.99,,,0.00,0,weatherlink.com 1.10,2013-02-21 03:32:00,
2013-02-20 19:47:00,44.8,39.0,29.99,SSE,165,0.0,-999.0,81,-99.99,,,0.00,0,weatherlink.com 1.10,2013-02-21 03:47:00,
2013-02-20 20:02:00,43.8,39.0,30.00,SSE,165,0.0,-999.0,82,-99.99,,,0.00,0,weatherlink.com 1.10,2013-02-21 04:02:00,
2013-02-20 20:17:00,43.2,39.0,30.00,SE,134,0.0,-999.0,84,-99.99,,,0.00,0,weatherlink.com 1.10,2013-02-21 04:17:00,
2013-02-20 20:32:00,43.1,39.0,30.00,SE,134,0.0,-999.0,85,-99.99,,,0.00,0,weatherlink.com 1.10,2013-02-21 04:32:00,
2013-02-20 20:48:00,42.8,39.0,30.01,SE,134,0.0,-999.0,85,-99.99,,,0.00,0,weatherlink.com 1.10,2013-02-21 04:48:00,
2013-02-20 21:02:00,42.6,38.0,30.02,SE,143,0.0,-999.0,85,-99.99,,,0.00,0,weatherlink.com 1.10,2013-02-21 05:02:00,
2013-02-20 21:17:00,42.2,38.0,30.02,SE,143,0.0,-999.0,86,-99.99,,,0.00,0,weatherlink.com 1.10,2013-02-21 05:17:00,
2013-02-20 21:32:00,41.9,38.0,30.03,SE,143,0.0,-999.0,86,-99.99,,,0.00,0,weatherlink.com 1.10,2013-02-21 05:32:00,
2013-02-20 21:48:00,41.3,37.0,30.03,SE,143,0.0,-999.0,86,-99.99,,,0.00,0,weatherlink.com 1.10,2013-02-21 05:48:00,
2013-02-20 22:03:00,41.2,38.0,30.03,SE,143,0.0,-999.0,87,-99.99,,,0.00,0,weatherlink.com 1.10,2013-02-21 06:03:00,
2013-02-20 22:18:00,40.9,37.0,30.03,SE,143,0.0,-999.0,87,-99.99,,,0.00,0,weatherlink.com 1.10,2013-02-21 06:18:00,
2013-02-20 22:33:00,40.6,37.0,30.03,SE,143,0.0,-999.0,88,-99.99,,,0.00,0,weatherlink.com 1.10,2013-02-21 06:33:00,
2013-02-20 22:48:00,40.4,37.0,30.03,SE,143,0.0,-999.0,88,-99.99,,,0.00,0,weatherlink.com 1.10,2013-02-21 06:48:00,
2013-02-20 23:03:00,40.1,37.0,30.03,SE,143,0.0,-999.0,89,-99.99,,,0.00,0,weatherlink.com 1.10,2013-02-21 07:03:00,
2013-02-20 23:18:00,40.1,37.0,30.03,SE,143,0.0,-999.0,89,-99.99,,,0.00,0,weatherlink.com 1.10,2013-02-21 07:18:00,
2013-02-20 23:33:00,40.4,38.0,30.04,SE,143,0.0,-999.0,90,-99.99,,,0.00,0,weatherlink.com 1.10,2013-02-21 07:33:00,
2013-02-20 23:48:00,40.4,38.0,30.05,SE,143,0.0,-999.0,90,-99.99,,,0.00,0,weatherlink.com 1.10,2013-02-21 07:48:00,